sensor_id;sensor_type;location;lat;lon;timestamp;temperature;humidity
42877;DHT22;42341;40.498;72.818;2022-12-24T00:01:14;0.60;99.90
42877;DHT22;42341;40.498;72.818;2022-12-24T00:03:40;0.50;99.90
42877;DHT22;42341;40.498;72.818;2022-12-24T00:06:21;0.50;99.90
42877;DHT22;42341;40.498;72.818;2022-12-24T00:08:48;0.40;99.90
42877;DHT22;42341;40.498;72.818;2022-12-24T00:11:14;0.40;99.90
42877;DHT22;42341;40.498;72.818;2022-12-24T00:13:39;0.30;99.90
42877;DHT22;42341;40.498;72.818;2022-12-24T00:16:06;0.20;99.90
42877;DHT22;42341;40.498;72.818;2022-12-24T00:18:31;0.20;99.90
42877;DHT22;42341;40.498;72.818;2022-12-24T00:20:57;0.20;99.90
42877;DHT22;42341;40.498;72.818;2022-12-24T00:23:23;0.30;99.90
42877;DHT22;42341;40.498;72.818;2022-12-24T00:25:50;0.20;99.90
42877;DHT22;42341;40.498;72.818;2022-12-24T00:28:16;0.10;99.90
42877;DHT22;42341;40.498;72.818;2022-12-24T00:30:42;0.20;99.90
42877;DHT22;42341;40.498;72.818;2022-12-24T00:33:09;0.20;99.90
42877;DHT22;42341;40.498;72.818;2022-12-24T00:35:39;0.10;99.90
42877;DHT22;42341;40.498;72.818;2022-12-24T00:38:06;0.10;99.90
42877;DHT22;42341;40.498;72.818;2022-12-24T00:40:32;0.10;99.90
42877;DHT22;42341;40.498;72.818;2022-12-24T00:42:58;0.10;99.90
42877;DHT22;42341;40.498;72.818;2022-12-24T00:45:25;0.10;99.90
42877;DHT22;42341;40.498;72.818;2022-12-24T00:47:52;0.10;99.90
42877;DHT22;42341;40.498;72.818;2022-12-24T00:50:18;0.00;99.90
42877;DHT22;42341;40.498;72.818;2022-12-24T00:52:44;0.00;99.90
42877;DHT22;42341;40.498;72.818;2022-12-24T00:55:10;-0.10;99.90
42877;DHT22;42341;40.498;72.818;2022-12-24T00:57:36;-0.10;99.90
42877;DHT22;42341;40.498;72.818;2022-12-24T01:00:03;-0.10;99.90
42877;DHT22;42341;40.498;72.818;2022-12-24T01:02:29;-0.20;99.90
42877;DHT22;42341;40.498;72.818;2022-12-24T01:04:54;-0.10;99.90
42877;DHT22;42341;40.498;72.818;2022-12-24T01:07:42;0.00;99.90
42877;DHT22;42341;40.498;72.818;2022-12-24T01:10:13;-0.20;99.90
42877;DHT22;42341;40.498;72.818;2022-12-24T01:12:40;-0.20;99.90
42877;DHT22;42341;40.498;72.818;2022-12-24T01:15:07;-0.20;99.90
42877;DHT22;42341;40.498;72.818;2022-12-24T01:17:34;-0.20;99.90
42877;DHT22;42341;40.498;72.818;2022-12-24T01:20:00;-0.10;99.90
42877;DHT22;42341;40.498;72.818;2022-12-24T01:22:26;-0.10;99.90
42877;DHT22;42341;40.498;72.818;2022-12-24T01:24:52;-0.10;99.90
42877;DHT22;42341;40.498;72.818;2022-12-24T01:27:18;-0.10;99.90
42877;DHT22;42341;40.498;72.818;2022-12-24T01:29:44;-0.10;99.90
42877;DHT22;42341;40.498;72.818;2022-12-24T01:32:10;-0.20;99.90
42877;DHT22;42341;40.498;72.818;2022-12-24T01:34:36;-0.30;99.90
42877;DHT22;42341;40.498;72.818;2022-12-24T01:37:02;-0.30;99.90
42877;DHT22;42341;40.498;72.818;2022-12-24T01:39:28;-0.20;99.90
42877;DHT22;42341;40.498;72.818;2022-12-24T01:41:54;-0.20;99.90
42877;DHT22;42341;40.498;72.818;2022-12-24T01:44:43;-0.20;99.90
42877;DHT22;42341;40.498;72.818;2022-12-24T01:47:19;-0.10;99.90
42877;DHT22;42341;40.498;72.818;2022-12-24T01:49:59;-0.10;99.90
42877;DHT22;42341;40.498;72.818;2022-12-24T01:52:29;0.00;99.90
42877;DHT22;42341;40.498;72.818;2022-12-24T01:55:12;-0.10;99.90
42877;DHT22;42341;40.498;72.818;2022-12-24T01:57:48;0.00;99.90
42877;DHT22;42341;40.498;72.818;2022-12-24T02:02:48;0.10;99.90
42877;DHT22;42341;40.498;72.818;2022-12-24T02:05:23;0.00;99.90
42877;DHT22;42341;40.498;72.818;2022-12-24T02:07:51;0.10;99.90
42877;DHT22;42341;40.498;72.818;2022-12-24T02:10:17;0.00;99.90
42877;DHT22;42341;40.498;72.818;2022-12-24T02:12:44;0.00;99.90
42877;DHT22;42341;40.498;72.818;2022-12-24T02:15:13;-0.20;99.90
42877;DHT22;42341;40.498;72.818;2022-12-24T02:23:25;-0.30;99.90
42877;DHT22;42341;40.498;72.818;2022-12-24T02:31:58;-0.20;99.90
42877;DHT22;42341;40.498;72.818;2022-12-24T02:37:04;-0.30;99.90
42877;DHT22;42341;40.498;72.818;2022-12-24T02:39:40;-0.30;99.90
42877;DHT22;42341;40.498;72.818;2022-12-24T02:42:08;-0.20;99.90
42877;DHT22;42341;40.498;72.818;2022-12-24T02:44:47;-0.20;99.90
42877;DHT22;42341;40.498;72.818;2022-12-24T02:47:16;-0.30;99.90
42877;DHT22;42341;40.498;72.818;2022-12-24T02:49:44;-0.40;99.90
42877;DHT22;42341;40.498;72.818;2022-12-24T02:52:49;-0.50;99.90
42877;DHT22;42341;40.498;72.818;2022-12-24T02:58:16;-0.50;99.90
42877;DHT22;42341;40.498;72.818;2022-12-24T03:03:37;-0.40;99.90
42877;DHT22;42341;40.498;72.818;2022-12-24T03:09:12;-0.50;99.90
42877;DHT22;42341;40.498;72.818;2022-12-24T03:11:45;-0.40;99.90
42877;DHT22;42341;40.498;72.818;2022-12-24T03:14:13;-0.50;99.90
42877;DHT22;42341;40.498;72.818;2022-12-24T03:16:41;-0.60;99.90
42877;DHT22;42341;40.498;72.818;2022-12-24T03:19:08;-0.60;99.90
42877;DHT22;42341;40.498;72.818;2022-12-24T03:21:37;-0.60;99.90
42877;DHT22;42341;40.498;72.818;2022-12-24T03:24:03;-0.50;99.90
42877;DHT22;42341;40.498;72.818;2022-12-24T03:26:30;-0.50;99.90
42877;DHT22;42341;40.498;72.818;2022-12-24T03:28:57;-0.50;99.90
42877;DHT22;42341;40.498;72.818;2022-12-24T03:31:23;-0.50;99.90
42877;DHT22;42341;40.498;72.818;2022-12-24T03:33:49;-0.50;99.90
42877;DHT22;42341;40.498;72.818;2022-12-24T03:36:16;-0.70;99.90
42877;DHT22;42341;40.498;72.818;2022-12-24T03:38:42;-0.60;99.90
42877;DHT22;42341;40.498;72.818;2022-12-24T03:41:08;-0.60;99.90
42877;DHT22;42341;40.498;72.818;2022-12-24T03:43:34;-0.50;99.90
42877;DHT22;42341;40.498;72.818;2022-12-24T03:46:06;-0.40;99.90
42877;DHT22;42341;40.498;72.818;2022-12-24T03:48:34;-0.30;99.90
42877;DHT22;42341;40.498;72.818;2022-12-24T03:51:01;-0.30;99.90
42877;DHT22;42341;40.498;72.818;2022-12-24T03:53:27;-0.20;99.90
42877;DHT22;42341;40.498;72.818;2022-12-24T03:55:53;-0.10;99.90
42877;DHT22;42341;40.498;72.818;2022-12-24T03:58:19;0.10;99.90
42877;DHT22;42341;40.498;72.818;2022-12-24T04:00:45;0.10;99.90
42877;DHT22;42341;40.498;72.818;2022-12-24T04:03:11;0.10;99.90
42877;DHT22;42341;40.498;72.818;2022-12-24T04:05:36;0.20;99.90
42877;DHT22;42341;40.498;72.818;2022-12-24T04:08:02;0.20;99.90
42877;DHT22;42341;40.498;72.818;2022-12-24T04:10:28;0.20;99.90
42877;DHT22;42341;40.498;72.818;2022-12-24T04:12:54;0.10;99.90
42877;DHT22;42341;40.498;72.818;2022-12-24T04:15:20;0.10;99.90
42877;DHT22;42341;40.498;72.818;2022-12-24T04:17:46;0.20;99.90
42877;DHT22;42341;40.498;72.818;2022-12-24T04:20:12;0.20;99.90
42877;DHT22;42341;40.498;72.818;2022-12-24T04:22:38;0.30;99.90
42877;DHT22;42341;40.498;72.818;2022-12-24T04:25:04;0.40;99.90
42877;DHT22;42341;40.498;72.818;2022-12-24T04:27:30;0.50;99.90
42877;DHT22;42341;40.498;72.818;2022-12-24T04:29:56;0.60;99.90
42877;DHT22;42341;40.498;72.818;2022-12-24T04:32:22;0.80;99.90
42877;DHT22;42341;40.498;72.818;2022-12-24T04:34:49;0.80;99.90
42877;DHT22;42341;40.498;72.818;2022-12-24T04:37:15;0.90;99.90
42877;DHT22;42341;40.498;72.818;2022-12-24T04:39:41;1.00;99.90
42877;DHT22;42341;40.498;72.818;2022-12-24T04:42:06;1.00;99.90
42877;DHT22;42341;40.498;72.818;2022-12-24T04:44:32;1.00;99.90
42877;DHT22;42341;40.498;72.818;2022-12-24T04:46:58;1.00;99.90
42877;DHT22;42341;40.498;72.818;2022-12-24T04:49:24;1.10;99.90
42877;DHT22;42341;40.498;72.818;2022-12-24T04:51:50;1.40;99.90
42877;DHT22;42341;40.498;72.818;2022-12-24T04:54:16;1.50;99.90
42877;DHT22;42341;40.498;72.818;2022-12-24T04:56:42;1.60;99.90
42877;DHT22;42341;40.498;72.818;2022-12-24T04:59:08;1.60;99.90
42877;DHT22;42341;40.498;72.818;2022-12-24T05:01:34;1.60;99.90
42877;DHT22;42341;40.498;72.818;2022-12-24T05:04:00;1.60;99.90
42877;DHT22;42341;40.498;72.818;2022-12-24T05:06:30;1.60;99.90
42877;DHT22;42341;40.498;72.818;2022-12-24T05:08:57;1.70;99.90
42877;DHT22;42341;40.498;72.818;2022-12-24T05:11:23;1.60;99.90
42877;DHT22;42341;40.498;72.818;2022-12-24T05:13:49;1.70;99.90
42877;DHT22;42341;40.498;72.818;2022-12-24T05:16:17;1.90;99.90
42877;DHT22;42341;40.498;72.818;2022-12-24T05:18:43;2.00;99.90
42877;DHT22;42341;40.498;72.818;2022-12-24T05:21:15;2.10;99.90
42877;DHT22;42341;40.498;72.818;2022-12-24T05:23:42;2.10;99.90
42877;DHT22;42341;40.498;72.818;2022-12-24T05:26:30;2.20;99.90
42877;DHT22;42341;40.498;72.818;2022-12-24T05:28:58;2.30;99.90
42877;DHT22;42341;40.498;72.818;2022-12-24T05:31:26;2.40;99.90
42877;DHT22;42341;40.498;72.818;2022-12-24T05:33:52;2.40;99.90
42877;DHT22;42341;40.498;72.818;2022-12-24T05:36:20;2.40;99.90
42877;DHT22;42341;40.498;72.818;2022-12-24T05:38:46;2.30;99.90
42877;DHT22;42341;40.498;72.818;2022-12-24T05:41:11;2.40;99.90
42877;DHT22;42341;40.498;72.818;2022-12-24T05:43:37;2.40;99.90
42877;DHT22;42341;40.498;72.818;2022-12-24T05:46:06;2.40;99.90
42877;DHT22;42341;40.498;72.818;2022-12-24T05:48:33;2.50;99.90
42877;DHT22;42341;40.498;72.818;2022-12-24T05:51:02;2.70;99.90
42877;DHT22;42341;40.498;72.818;2022-12-24T05:53:28;2.80;99.90
42877;DHT22;42341;40.498;72.818;2022-12-24T05:55:54;3.10;99.90
42877;DHT22;42341;40.498;72.818;2022-12-24T05:58:20;3.40;99.80
42877;DHT22;42341;40.498;72.818;2022-12-24T06:00:46;3.70;99.10
42877;DHT22;42341;40.498;72.818;2022-12-24T06:03:12;3.70;98.80
42877;DHT22;42341;40.498;72.818;2022-12-24T06:05:40;4.10;98.50
42877;DHT22;42341;40.498;72.818;2022-12-24T06:08:06;4.60;97.40
42877;DHT22;42341;40.498;72.818;2022-12-24T06:10:32;5.00;96.50
42877;DHT22;42341;40.498;72.818;2022-12-24T06:12:58;4.90;95.50
42877;DHT22;42341;40.498;72.818;2022-12-24T06:15:24;5.00;95.70
42877;DHT22;42341;40.498;72.818;2022-12-24T06:17:50;5.30;95.10
42877;DHT22;42341;40.498;72.818;2022-12-24T06:20:16;5.40;95.10
42877;DHT22;42341;40.498;72.818;2022-12-24T06:22:41;5.40;95.10
42877;DHT22;42341;40.498;72.818;2022-12-24T06:25:08;5.50;94.70
42877;DHT22;42341;40.498;72.818;2022-12-24T06:27:34;5.50;94.60
42877;DHT22;42341;40.498;72.818;2022-12-24T06:29:59;5.60;94.30
42877;DHT22;42341;40.498;72.818;2022-12-24T06:32:25;5.60;94.00
42877;DHT22;42341;40.498;72.818;2022-12-24T06:34:51;5.50;94.00
42877;DHT22;42341;40.498;72.818;2022-12-24T06:37:17;5.60;94.40
42877;DHT22;42341;40.498;72.818;2022-12-24T06:39:46;5.70;93.30
42877;DHT22;42341;40.498;72.818;2022-12-24T06:42:15;5.80;93.30
42877;DHT22;42341;40.498;72.818;2022-12-24T06:44:41;6.00;93.20
42877;DHT22;42341;40.498;72.818;2022-12-24T06:47:07;6.00;93.20
42877;DHT22;42341;40.498;72.818;2022-12-24T06:49:32;6.20;93.40
42877;DHT22;42341;40.498;72.818;2022-12-24T06:51:58;6.30;92.90
42877;DHT22;42341;40.498;72.818;2022-12-24T06:54:24;6.80;92.90
42877;DHT22;42341;40.498;72.818;2022-12-24T06:56:50;7.50;92.10
42877;DHT22;42341;40.498;72.818;2022-12-24T06:59:16;8.70;89.50
42877;DHT22;42341;40.498;72.818;2022-12-24T07:01:43;7.80;90.30
42877;DHT22;42341;40.498;72.818;2022-12-24T07:04:09;7.30;90.80
42877;DHT22;42341;40.498;72.818;2022-12-24T07:06:35;6.70;91.30
42877;DHT22;42341;40.498;72.818;2022-12-24T07:09:01;6.30;92.20
42877;DHT22;42341;40.498;72.818;2022-12-24T07:11:27;6.10;92.30
42877;DHT22;42341;40.498;72.818;2022-12-24T07:13:53;5.90;92.70
42877;DHT22;42341;40.498;72.818;2022-12-24T07:16:19;5.70;92.90
42877;DHT22;42341;40.498;72.818;2022-12-24T07:18:45;5.60;93.40
42877;DHT22;42341;40.498;72.818;2022-12-24T07:21:10;5.60;94.00
42877;DHT22;42341;40.498;72.818;2022-12-24T07:23:36;5.60;94.40
42877;DHT22;42341;40.498;72.818;2022-12-24T07:26:04;5.70;94.10
42877;DHT22;42341;40.498;72.818;2022-12-24T07:28:30;5.50;94.40
42877;DHT22;42341;40.498;72.818;2022-12-24T07:30:57;5.50;94.50
42877;DHT22;42341;40.498;72.818;2022-12-24T07:33:23;5.60;94.60
42877;DHT22;42341;40.498;72.818;2022-12-24T07:36:03;5.70;94.10
42877;DHT22;42341;40.498;72.818;2022-12-24T07:38:30;5.90;94.40
42877;DHT22;42341;40.498;72.818;2022-12-24T07:40:56;6.00;94.30
42877;DHT22;42341;40.498;72.818;2022-12-24T07:43:23;6.20;93.90
42877;DHT22;42341;40.498;72.818;2022-12-24T07:45:49;6.30;93.60
42877;DHT22;42341;40.498;72.818;2022-12-24T07:48:15;6.30;93.30
42877;DHT22;42341;40.498;72.818;2022-12-24T07:50:41;6.10;93.60
42877;DHT22;42341;40.498;72.818;2022-12-24T07:53:07;6.00;93.90
42877;DHT22;42341;40.498;72.818;2022-12-24T07:55:34;6.10;93.90
42877;DHT22;42341;40.498;72.818;2022-12-24T07:58:00;6.00;94.50
42877;DHT22;42341;40.498;72.818;2022-12-24T08:00:26;5.90;94.20
42877;DHT22;42341;40.498;72.818;2022-12-24T08:02:52;5.70;94.40
42877;DHT22;42341;40.498;72.818;2022-12-24T08:05:18;5.60;94.50
42877;DHT22;42341;40.498;72.818;2022-12-24T08:07:44;5.80;95.00
42877;DHT22;42341;40.498;72.818;2022-12-24T08:10:10;5.80;94.80
42877;DHT22;42341;40.498;72.818;2022-12-24T08:12:37;5.80;94.20
42877;DHT22;42341;40.498;72.818;2022-12-24T08:15:03;5.60;94.40
42877;DHT22;42341;40.498;72.818;2022-12-24T08:17:29;5.50;94.40
42877;DHT22;42341;40.498;72.818;2022-12-24T08:19:55;5.40;94.60
42877;DHT22;42341;40.498;72.818;2022-12-24T08:22:21;5.40;94.50
42877;DHT22;42341;40.498;72.818;2022-12-24T08:24:47;5.50;94.40
42877;DHT22;42341;40.498;72.818;2022-12-24T08:27:13;5.30;94.60
42877;DHT22;42341;40.498;72.818;2022-12-24T08:29:39;5.10;95.20
42877;DHT22;42341;40.498;72.818;2022-12-24T08:32:04;5.00;95.40
42877;DHT22;42341;40.498;72.818;2022-12-24T08:34:30;5.00;95.50
42877;DHT22;42341;40.498;72.818;2022-12-24T08:36:56;5.00;95.80
42877;DHT22;42341;40.498;72.818;2022-12-24T08:39:22;5.00;95.80
42877;DHT22;42341;40.498;72.818;2022-12-24T08:41:49;4.80;95.90
42877;DHT22;42341;40.498;72.818;2022-12-24T08:44:15;4.70;96.10
42877;DHT22;42341;40.498;72.818;2022-12-24T08:46:41;4.60;96.20
42877;DHT22;42341;40.498;72.818;2022-12-24T08:49:07;4.60;96.30
42877;DHT22;42341;40.498;72.818;2022-12-24T08:51:33;4.40;97.00
42877;DHT22;42341;40.498;72.818;2022-12-24T08:53:58;4.20;97.30
42877;DHT22;42341;40.498;72.818;2022-12-24T08:56:24;4.30;97.50
42877;DHT22;42341;40.498;72.818;2022-12-24T08:58:50;4.20;97.60
42877;DHT22;42341;40.498;72.818;2022-12-24T09:01:18;4.20;98.10
42877;DHT22;42341;40.498;72.818;2022-12-24T09:03:44;4.10;98.00
42877;DHT22;42341;40.498;72.818;2022-12-24T09:06:10;4.10;98.40
42877;DHT22;42341;40.498;72.818;2022-12-24T09:08:36;4.00;98.60
42877;DHT22;42341;40.498;72.818;2022-12-24T09:11:06;4.00;98.60
42877;DHT22;42341;40.498;72.818;2022-12-24T09:13:33;4.00;98.80
42877;DHT22;42341;40.498;72.818;2022-12-24T09:15:59;4.10;98.80
42877;DHT22;42341;40.498;72.818;2022-12-24T09:18:25;3.90;98.60
42877;DHT22;42341;40.498;72.818;2022-12-24T09:20:51;3.90;98.80
42877;DHT22;42341;40.498;72.818;2022-12-24T09:23:22;3.80;99.10
42877;DHT22;42341;40.498;72.818;2022-12-24T09:25:48;3.70;98.90
42877;DHT22;42341;40.498;72.818;2022-12-24T09:28:14;3.80;99.40
42877;DHT22;42341;40.498;72.818;2022-12-24T09:30:40;3.80;99.20
42877;DHT22;42341;40.498;72.818;2022-12-24T09:33:06;3.70;98.60
42877;DHT22;42341;40.498;72.818;2022-12-24T09:35:32;3.70;99.10
42877;DHT22;42341;40.498;72.818;2022-12-24T09:37:58;3.70;99.20
42877;DHT22;42341;40.498;72.818;2022-12-24T09:40:39;3.70;99.20
42877;DHT22;42341;40.498;72.818;2022-12-24T09:43:20;3.50;99.60
42877;DHT22;42341;40.498;72.818;2022-12-24T09:48:43;3.40;99.90
42877;DHT22;42341;40.498;72.818;2022-12-24T09:51:32;3.50;99.90
42877;DHT22;42341;40.498;72.818;2022-12-24T09:54:07;3.40;99.90
42877;DHT22;42341;40.498;72.818;2022-12-24T09:56:41;3.40;99.90
42877;DHT22;42341;40.498;72.818;2022-12-24T09:59:15;3.50;99.90
42877;DHT22;42341;40.498;72.818;2022-12-24T10:01:42;3.40;99.90
42877;DHT22;42341;40.498;72.818;2022-12-24T10:04:17;3.50;99.90
42877;DHT22;42341;40.498;72.818;2022-12-24T10:06:50;3.40;99.90
42877;DHT22;42341;40.498;72.818;2022-12-24T10:12:19;3.30;99.90
42877;DHT22;42341;40.498;72.818;2022-12-24T10:15:12;3.20;99.90
42877;DHT22;42341;40.498;72.818;2022-12-24T10:23:39;3.30;99.90
42877;DHT22;42341;40.498;72.818;2022-12-24T10:26:26;3.30;99.90
42877;DHT22;42341;40.498;72.818;2022-12-24T10:29:01;3.20;99.90
42877;DHT22;42341;40.498;72.818;2022-12-24T10:31:34;3.20;99.90
42877;DHT22;42341;40.498;72.818;2022-12-24T10:34:02;3.20;99.90
42877;DHT22;42341;40.498;72.818;2022-12-24T10:36:30;3.10;99.90
42877;DHT22;42341;40.498;72.818;2022-12-24T10:38:57;3.10;99.90
42877;DHT22;42341;40.498;72.818;2022-12-24T10:41:24;3.00;99.90
42877;DHT22;42341;40.498;72.818;2022-12-24T10:43:51;2.90;99.90
42877;DHT22;42341;40.498;72.818;2022-12-24T10:46:35;3.00;99.90
42877;DHT22;42341;40.498;72.818;2022-12-24T10:49:05;2.90;99.90
42877;DHT22;42341;40.498;72.818;2022-12-24T10:54:12;2.60;99.90
42877;DHT22;42341;40.498;72.818;2022-12-24T10:56:41;2.40;99.90
42877;DHT22;42341;40.498;72.818;2022-12-24T10:59:22;2.40;99.90
42877;DHT22;42341;40.498;72.818;2022-12-24T11:01:50;2.30;99.90
42877;DHT22;42341;40.498;72.818;2022-12-24T11:04:19;2.20;99.90
42877;DHT22;42341;40.498;72.818;2022-12-24T11:09:28;2.20;99.90
42877;DHT22;42341;40.498;72.818;2022-12-24T11:11:56;2.10;99.90
42877;DHT22;42341;40.498;72.818;2022-12-24T11:14:23;2.20;99.90
42877;DHT22;42341;40.498;72.818;2022-12-24T11:16:52;2.20;99.90
42877;DHT22;42341;40.498;72.818;2022-12-24T11:19:30;2.10;99.90
42877;DHT22;42341;40.498;72.818;2022-12-24T11:22:03;2.10;99.90
42877;DHT22;42341;40.498;72.818;2022-12-24T11:24:33;2.10;99.90
42877;DHT22;42341;40.498;72.818;2022-12-24T11:27:40;2.10;99.90
42877;DHT22;42341;40.498;72.818;2022-12-24T11:32:41;2.00;99.90
42877;DHT22;42341;40.498;72.818;2022-12-24T11:35:16;2.00;99.90
42877;DHT22;42341;40.498;72.818;2022-12-24T11:37:42;2.00;99.90
42877;DHT22;42341;40.498;72.818;2022-12-24T11:40:20;2.00;99.90
42877;DHT22;42341;40.498;72.818;2022-12-24T11:42:47;1.90;99.90
42877;DHT22;42341;40.498;72.818;2022-12-24T11:45:21;2.00;99.90
42877;DHT22;42341;40.498;72.818;2022-12-24T11:47:48;2.00;99.90
42877;DHT22;42341;40.498;72.818;2022-12-24T11:50:34;1.90;99.90
42877;DHT22;42341;40.498;72.818;2022-12-24T11:55:54;2.00;99.90
42877;DHT22;42341;40.498;72.818;2022-12-24T12:00:47;2.00;99.90
42877;DHT22;42341;40.498;72.818;2022-12-24T12:05:58;2.00;99.90
42877;DHT22;42341;40.498;72.818;2022-12-24T12:08:27;2.00;99.90
42877;DHT22;42341;40.498;72.818;2022-12-24T12:10:56;2.00;99.90
42877;DHT22;42341;40.498;72.818;2022-12-24T12:13:28;2.00;99.90
42877;DHT22;42341;40.498;72.818;2022-12-24T12:16:18;1.90;99.90
42877;DHT22;42341;40.498;72.818;2022-12-24T12:18:56;2.00;99.90
42877;DHT22;42341;40.498;72.818;2022-12-24T12:21:29;1.90;99.90
42877;DHT22;42341;40.498;72.818;2022-12-24T12:24:03;1.90;99.90
42877;DHT22;42341;40.498;72.818;2022-12-24T12:26:31;1.90;99.90
42877;DHT22;42341;40.498;72.818;2022-12-24T12:29:24;1.90;99.90
42877;DHT22;42341;40.498;72.818;2022-12-24T12:31:59;1.70;99.90
42877;DHT22;42341;40.498;72.818;2022-12-24T12:34:28;1.80;99.90
42877;DHT22;42341;40.498;72.818;2022-12-24T12:37:00;1.80;99.90
42877;DHT22;42341;40.498;72.818;2022-12-24T12:39:30;2.00;99.90
42877;DHT22;42341;40.498;72.818;2022-12-24T12:42:36;1.90;99.90
42877;DHT22;42341;40.498;72.818;2022-12-24T12:50:44;1.80;99.90
42877;DHT22;42341;40.498;72.818;2022-12-24T12:53:41;1.70;99.90
42877;DHT22;42341;40.498;72.818;2022-12-24T12:56:27;1.70;99.90
42877;DHT22;42341;40.498;72.818;2022-12-24T12:59:17;1.70;99.90
42877;DHT22;42341;40.498;72.818;2022-12-24T13:21:29;1.80;99.90
42877;DHT22;42341;40.498;72.818;2022-12-24T13:24:18;1.80;99.90
42877;DHT22;42341;40.498;72.818;2022-12-24T13:27:19;1.90;99.90
42877;DHT22;42341;40.498;72.818;2022-12-24T13:37:49;1.70;99.90
42877;DHT22;42341;40.498;72.818;2022-12-24T13:47:55;1.60;99.90
42877;DHT22;42341;40.498;72.818;2022-12-24T13:56:24;1.70;99.90
42877;DHT22;42341;40.498;72.818;2022-12-24T13:59:08;1.60;99.90
42877;DHT22;42341;40.498;72.818;2022-12-24T14:01:38;1.60;99.90
42877;DHT22;42341;40.498;72.818;2022-12-24T14:04:07;1.50;99.90
42877;DHT22;42341;40.498;72.818;2022-12-24T14:06:41;1.50;99.90
42877;DHT22;42341;40.498;72.818;2022-12-24T14:09:19;1.50;99.90
42877;DHT22;42341;40.498;72.818;2022-12-24T14:14:33;1.40;99.90
42877;DHT22;42341;40.498;72.818;2022-12-24T14:17:23;1.20;99.90
42877;DHT22;42341;40.498;72.818;2022-12-24T14:19:51;1.10;99.90
42877;DHT22;42341;40.498;72.818;2022-12-24T14:25:02;0.90;99.90
42877;DHT22;42341;40.498;72.818;2022-12-24T14:27:32;0.90;99.90
42877;DHT22;42341;40.498;72.818;2022-12-24T14:30:04;0.90;99.90
42877;DHT22;42341;40.498;72.818;2022-12-24T14:32:38;0.90;99.90
42877;DHT22;42341;40.498;72.818;2022-12-24T14:35:37;0.90;99.90
42877;DHT22;42341;40.498;72.818;2022-12-24T14:38:14;1.00;99.90
42877;DHT22;42341;40.498;72.818;2022-12-24T14:46:16;1.20;99.90
42877;DHT22;42341;40.498;72.818;2022-12-24T14:49:27;1.30;99.90
42877;DHT22;42341;40.498;72.818;2022-12-24T14:52:07;1.40;99.90
42877;DHT22;42341;40.498;72.818;2022-12-24T14:54:39;1.40;99.90
42877;DHT22;42341;40.498;72.818;2022-12-24T14:59:54;1.60;99.90
42877;DHT22;42341;40.498;72.818;2022-12-24T15:05:15;1.60;99.90
42877;DHT22;42341;40.498;72.818;2022-12-24T15:07:49;1.60;99.90
42877;DHT22;42341;40.498;72.818;2022-12-24T15:10:33;1.50;99.90
42877;DHT22;42341;40.498;72.818;2022-12-24T15:13:15;1.50;99.90
42877;DHT22;42341;40.498;72.818;2022-12-24T15:15:47;1.50;99.90
42877;DHT22;42341;40.498;72.818;2022-12-24T15:18:15;1.50;99.90
42877;DHT22;42341;40.498;72.818;2022-12-24T15:20:46;1.50;99.90
42877;DHT22;42341;40.498;72.818;2022-12-24T15:23:21;1.50;99.90
42877;DHT22;42341;40.498;72.818;2022-12-24T15:25:47;1.40;99.90
42877;DHT22;42341;40.498;72.818;2022-12-24T15:28:19;1.40;99.90
42877;DHT22;42341;40.498;72.818;2022-12-24T15:30:47;1.40;99.90
42877;DHT22;42341;40.498;72.818;2022-12-24T15:33:13;1.40;99.90
42877;DHT22;42341;40.498;72.818;2022-12-24T15:35:50;1.40;99.90
42877;DHT22;42341;40.498;72.818;2022-12-24T15:38:32;1.40;99.90
42877;DHT22;42341;40.498;72.818;2022-12-24T15:41:01;1.30;99.90
42877;DHT22;42341;40.498;72.818;2022-12-24T15:43:29;1.30;99.90
42877;DHT22;42341;40.498;72.818;2022-12-24T15:45:56;1.10;99.90
42877;DHT22;42341;40.498;72.818;2022-12-24T15:48:25;1.10;99.90
42877;DHT22;42341;40.498;72.818;2022-12-24T15:50:57;1.00;99.90
42877;DHT22;42341;40.498;72.818;2022-12-24T15:53:30;0.90;99.90
42877;DHT22;42341;40.498;72.818;2022-12-24T15:56:03;0.80;99.90
42877;DHT22;42341;40.498;72.818;2022-12-24T16:06:16;0.60;99.90
42877;DHT22;42341;40.498;72.818;2022-12-24T16:08:43;0.60;99.90
42877;DHT22;42341;40.498;72.818;2022-12-24T16:11:25;0.50;99.90
42877;DHT22;42341;40.498;72.818;2022-12-24T16:16:35;0.40;99.90
42877;DHT22;42341;40.498;72.818;2022-12-24T16:19:02;0.30;99.90
42877;DHT22;42341;40.498;72.818;2022-12-24T16:21:36;0.30;99.90
42877;DHT22;42341;40.498;72.818;2022-12-24T16:24:21;0.10;99.90
42877;DHT22;42341;40.498;72.818;2022-12-24T16:26:48;0.10;99.90
42877;DHT22;42341;40.498;72.818;2022-12-24T16:29:15;0.00;99.90
42877;DHT22;42341;40.498;72.818;2022-12-24T16:31:49;0.10;99.90
42877;DHT22;42341;40.498;72.818;2022-12-24T16:34:17;0.20;99.90
42877;DHT22;42341;40.498;72.818;2022-12-24T16:36:45;0.30;99.90
42877;DHT22;42341;40.498;72.818;2022-12-24T16:39:26;0.20;99.90
42877;DHT22;42341;40.498;72.818;2022-12-24T16:41:57;0.30;99.90
42877;DHT22;42341;40.498;72.818;2022-12-24T16:44:43;0.20;99.90
42877;DHT22;42341;40.498;72.818;2022-12-24T16:47:12;0.20;99.90
42877;DHT22;42341;40.498;72.818;2022-12-24T16:49:38;0.30;99.90
42877;DHT22;42341;40.498;72.818;2022-12-24T16:52:05;0.30;99.90
42877;DHT22;42341;40.498;72.818;2022-12-24T16:54:32;0.40;99.90
42877;DHT22;42341;40.498;72.818;2022-12-24T16:56:58;0.30;99.90
42877;DHT22;42341;40.498;72.818;2022-12-24T16:59:24;0.40;99.90
42877;DHT22;42341;40.498;72.818;2022-12-24T17:01:50;0.50;99.90
42877;DHT22;42341;40.498;72.818;2022-12-24T17:04:17;0.50;99.90
42877;DHT22;42341;40.498;72.818;2022-12-24T17:06:44;0.60;99.90
42877;DHT22;42341;40.498;72.818;2022-12-24T17:09:11;0.40;99.90
42877;DHT22;42341;40.498;72.818;2022-12-24T17:11:37;0.40;99.90
42877;DHT22;42341;40.498;72.818;2022-12-24T17:14:04;0.30;99.90
42877;DHT22;42341;40.498;72.818;2022-12-24T17:16:30;0.30;99.90
42877;DHT22;42341;40.498;72.818;2022-12-24T17:18:56;0.40;99.90
42877;DHT22;42341;40.498;72.818;2022-12-24T17:21:22;0.40;99.90
42877;DHT22;42341;40.498;72.818;2022-12-24T17:23:48;0.50;99.90
42877;DHT22;42341;40.498;72.818;2022-12-24T17:26:14;0.40;99.90
42877;DHT22;42341;40.498;72.818;2022-12-24T17:28:41;0.40;99.90
42877;DHT22;42341;40.498;72.818;2022-12-24T17:31:15;0.50;99.90
42877;DHT22;42341;40.498;72.818;2022-12-24T17:33:42;0.50;99.90
42877;DHT22;42341;40.498;72.818;2022-12-24T17:36:08;0.40;99.90
42877;DHT22;42341;40.498;72.818;2022-12-24T17:38:34;0.40;99.90
42877;DHT22;42341;40.498;72.818;2022-12-24T17:41:09;0.50;99.90
42877;DHT22;42341;40.498;72.818;2022-12-24T17:43:36;0.50;99.90
42877;DHT22;42341;40.498;72.818;2022-12-24T17:46:16;0.60;99.90
42877;DHT22;42341;40.498;72.818;2022-12-24T17:48:42;0.60;99.90
42877;DHT22;42341;40.498;72.818;2022-12-24T17:51:10;0.50;99.90